KCWA

Central Wisconsin Airport

Mosinee, Wisconsin, USA
METAR KCWA 201950Z 06007KT 7SM OVC150 22/18 A2996
Observed Flight Rules
Aug-20 @ 19:50 UTC (40 minutes ago) Visual Flight Rules
Wind Visibility Clouds
60° at 7 knots 7 miles
  • Overcast at 15,000' AGL
Temperatures Readings
Current 22°C / 72°F
Dewpoint 18°C / 64°F
Humidity 78%
Altimeter 29.96" Hg
Pressure 1015 hPa
Elevation 389
METAR KCWA 201950Z 06007KT 7SM OVC150 22/18 A2996
Observed Flight Rules
Aug-20 @ 19:50 UTC
(40 minutes ago)
VFR
Wind Visibility
60° at 7 knots 7 miles
Clouds
  • Overcast at 15,000' AGL
Temperature Dewpoint
22°C / 72°F 18°C / 64°F
Humidity Altimeter Pressure
78% 29.96" Hg 1015 hPa